West Lafayette, Ohio
Current Conditions -  °F | °C
As of 9:53 AM on Monday 22 Dec 2014 (Local Time) from KPHD Reporting Station
Haze Haze  
Wind Chill: 29°   Ceiling: 5000
Heat Index: 29°   Visibility: 5mi
Dew Point: 25°   Wind: 0mph
Humidity: 85%   Direction: NA
Pressure: 30.1"   Gusts: NA
Location:  40.28°N, 81.75°W
Report Text: KPHD 221453Z AUTO 00000KT 5SM BR OVC050 M02/M04 A3010 RMK AO2 SLP205 T10171039 58002
Loading
Personal Weather Stations






























Interactive Weather Map New forecast layout! Learn more

10-Day Weather Forecast

Advertisements
Track Severe Weather on mobile